Time;durP1;ratioP1;P1;durP2;ratioP2;P2;SDS_P1;SDS_P2;PMS_P1;PMS_P2;Temp;Humidity;BMP_temperature;BMP_pressure;BME280_temperature;BME280_humidity;BME280_pressure;Samples;Min_cycle;Max_cycle;Signal;HPM_P1;HPM_P2
2023/01/08 00:01:09;;;;;;;;;;;22.50;99.90;;;;;;5006704;28;19914;-75
2023/01/08 00:03:36;;;;;;;;;;;22.30;99.90;;;;;;5005879;28;19918;-71
2023/01/08 00:06:05;;;;;;;;;;;22.00;99.90;;;;;;5006376;28;19951;-76
2023/01/08 00:08:32;;;;;;;;;;;22.10;99.90;;;;;;5006136;28;20005;-76
2023/01/08 00:10:58;;;;;;;;;;;22.10;99.90;;;;;;5006444;28;19914;-75
2023/01/08 00:13:25;;;;;;;;;;;22.40;99.90;;;;;;5006244;28;19917;-76
2023/01/08 00:15:52;;;;;;;;;;;22.50;99.90;;;;;;5006211;28;19913;-76
2023/01/08 00:18:18;;;;;;;;;;;22.70;99.90;;;;;;5005984;28;19928;-73
2023/01/08 00:20:46;;;;;;;;;;;22.70;99.90;;;;;;5005924;28;19921;-76
2023/01/08 00:23:16;;;;;;;;;;;22.60;99.90;;;;;;5005821;28;20636;-76
2023/01/08 00:25:46;;;;;;;;;;;22.70;99.90;;;;;;5006346;28;19914;-77
2023/01/08 00:28:13;;;;;;;;;;;22.60;99.90;;;;;;5006040;28;19984;-75
2023/01/08 00:30:41;;;;;;;;;;;22.50;99.90;;;;;;5005590;28;19922;-76
2023/01/08 00:33:07;;;;;;;;;;;22.50;99.90;;;;;;5005809;28;19949;-76
2023/01/08 00:35:35;;;;;;;;;;;22.20;99.90;;;;;;5005636;28;20706;-76
2023/01/08 00:38:02;;;;;;;;;;;22.20;99.90;;;;;;5004372;28;19972;-75
2023/01/08 00:40:29;;;;;;;;;;;22.30;99.90;;;;;;5003818;28;19964;-74
2023/01/08 00:42:56;;;;;;;;;;;22.20;99.90;;;;;;5005837;28;19918;-76
2023/01/08 00:45:22;;;;;;;;;;;22.00;99.90;;;;;;5005100;28;19929;-76
2023/01/08 00:47:49;;;;;;;;;;;22.10;99.90;;;;;;5005726;28;20355;-74
2023/01/08 00:50:15;;;;;;;;;;;22.10;99.90;;;;;;5005224;28;19913;-76
2023/01/08 00:52:42;;;;;;;;;;;22.30;99.90;;;;;;5005507;28;20395;-76
2023/01/08 00:55:09;;;;;;;;;;;22.20;99.90;;;;;;5005564;28;19951;-76
2023/01/08 00:57:37;;;;;;;;;;;22.40;99.90;;;;;;5005026;28;19964;-74
2023/01/08 01:00:04;;;;;;;;;;;22.50;99.90;;;;;;5004977;28;20645;-75
2023/01/08 01:02:31;;;;;;;;;;;22.90;99.90;;;;;;5004894;28;20021;-77
2023/01/08 01:04:58;;;;;;;;;;;23.20;99.40;;;;;;5005548;28;20399;-76
2023/01/08 01:07:24;;;;;;;;;;;23.70;99.90;;;;;;5005367;28;19921;-77
2023/01/08 01:09:51;;;;;;;;;;;24.00;98.60;;;;;;5003994;28;20005;-76
2023/01/08 01:12:18;;;;;;;;;;;24.50;98.40;;;;;;5005146;28;19920;-74
2023/01/08 01:14:44;;;;;;;;;;;24.50;97.60;;;;;;5005001;28;19999;-77
2023/01/08 01:17:11;;;;;;;;;;;24.80;98.30;;;;;;5005355;28;19921;-73
2023/01/08 01:19:40;;;;;;;;;;;25.10;97.60;;;;;;5004943;28;19913;-77
2023/01/08 01:22:06;;;;;;;;;;;25.30;97.50;;;;;;5005294;28;19917;-74
2023/01/08 01:24:33;;;;;;;;;;;24.90;98.10;;;;;;5005173;28;19925;-74
2023/01/08 01:27:00;;;;;;;;;;;24.90;98.40;;;;;;5005396;28;19992;-74
2023/01/08 01:29:27;;;;;;;;;;;25.50;98.40;;;;;;5004598;28;19917;-75
2023/01/08 01:31:53;;;;;;;;;;;25.90;97.80;;;;;;5005259;28;19953;-70
2023/01/08 01:34:20;;;;;;;;;;;26.00;98.00;;;;;;5005178;28;19921;-75
2023/01/08 01:36:47;;;;;;;;;;;24.80;97.20;;;;;;5004463;28;19930;-71
2023/01/08 01:39:13;;;;;;;;;;;24.30;98.70;;;;;;5003939;28;19924;-76
2023/01/08 01:41:42;;;;;;;;;;;24.80;98.20;;;;;;5005129;28;19913;-75
2023/01/08 01:44:26;;;;;;;;;;;25.00;98.60;;;;;;5005300;28;20352;-74
2023/01/08 01:46:53;;;;;;;;;;;24.70;98.50;;;;;;5004967;28;19979;-76
2023/01/08 01:49:22;;;;;;;;;;;24.00;99.00;;;;;;5003870;28;19961;-75
2023/01/08 01:51:50;;;;;;;;;;;23.60;99.20;;;;;;5004577;28;19914;-76
2023/01/08 01:54:17;;;;;;;;;;;23.70;99.20;;;;;;5004806;28;20048;-76
2023/01/08 01:56:44;;;;;;;;;;;23.70;99.40;;;;;;5005112;28;19957;-75
2023/01/08 01:59:12;;;;;;;;;;;23.90;99.90;;;;;;5004540;28;19913;-77
2023/01/08 02:01:39;;;;;;;;;;;24.10;99.10;;;;;;5004025;28;20008;-75
2023/01/08 02:04:08;;;;;;;;;;;24.00;99.10;;;;;;5004663;28;19955;-76
2023/01/08 02:06:41;;;;;;;;;;;24.20;99.90;;;;;;5004727;28;19920;-75
2023/01/08 02:09:19;;;;;;;;;;;24.30;99.50;;;;;;5004534;28;20016;-76
2023/01/08 02:12:15;;;;;;;;;;;24.20;98.80;;;;;;5004469;28;20206;-76
2023/01/08 02:14:48;;;;;;;;;;;24.20;99.90;;;;;;4988902;28;20150;-67
2023/01/08 02:17:21;;;;;;;;;;;24.10;98.10;;;;;;5003682;28;19922;-70
2023/01/08 02:19:48;;;;;;;;;;;24.10;99.30;;;;;;5003820;28;20387;-76
2023/01/08 02:22:35;;;;;;;;;;;24.00;99.90;;;;;;5004225;28;20688;-68
2023/01/08 02:25:04;;;;;;;;;;;24.10;99.90;;;;;;5004245;28;19920;-75
2023/01/08 02:27:32;;;;;;;;;;;24.40;99.80;;;;;;5003894;28;19924;-66
2023/01/08 02:29:59;;;;;;;;;;;24.20;99.60;;;;;;5003136;28;19959;-66
2023/01/08 02:32:27;;;;;;;;;;;24.20;99.50;;;;;;5003843;28;19921;-71
2023/01/08 02:34:54;;;;;;;;;;;24.40;99.90;;;;;;5004003;28;19913;-77
2023/01/08 02:37:22;;;;;;;;;;;24.40;99.40;;;;;;5003351;28;19932;-73
2023/01/08 02:39:48;;;;;;;;;;;24.30;99.80;;;;;;5003720;28;19914;-73
2023/01/08 02:42:33;;;;;;;;;;;24.30;99.40;;;;;;5003717;28;19913;-76
2023/01/08 02:45:05;;;;;;;;;;;24.40;99.80;;;;;;5004022;28;19917;-76
2023/01/08 02:47:38;;;;;;;;;;;24.30;99.50;;;;;;5003420;28;19914;-72
2023/01/08 02:50:08;;;;;;;;;;;24.20;99.70;;;;;;5003149;28;19920;-70
2023/01/08 02:52:38;;;;;;;;;;;24.40;99.90;;;;;;5003431;28;19914;-67
2023/01/08 02:55:05;;;;;;;;;;;24.20;99.90;;;;;;5003162;28;19913;-74
2023/01/08 02:57:32;;;;;;;;;;;24.30;99.90;;;;;;5003163;28;20020;-65
2023/01/08 02:59:59;;;;;;;;;;;24.50;99.80;;;;;;5003006;28;19914;-71
2023/01/08 03:02:28;;;;;;;;;;;24.60;99.40;;;;;;5003824;28;20364;-75
2023/01/08 03:04:59;;;;;;;;;;;24.60;99.20;;;;;;5003624;28;19914;-65
2023/01/08 03:07:26;;;;;;;;;;;24.20;99.50;;;;;;5003388;28;20506;-69
2023/01/08 03:09:52;;;;;;;;;;;24.50;99.40;;;;;;5002987;28;19945;-65
2023/01/08 03:12:37;;;;;;;;;;;24.30;99.60;;;;;;5003060;28;19960;-68
2023/01/08 03:15:07;;;;;;;;;;;24.40;99.80;;;;;;5002970;28;20296;-70
2023/01/08 03:17:36;;;;;;;;;;;24.30;99.90;;;;;;5003017;28;20020;-69
2023/01/08 03:20:07;;;;;;;;;;;24.20;99.80;;;;;;5003238;28;19914;-71
2023/01/08 03:22:36;;;;;;;;;;;24.30;99.90;;;;;;5003178;28;19944;-67
2023/01/08 03:25:04;;;;;;;;;;;24.40;99.90;;;;;;5003541;28;19920;-69
2023/01/08 03:27:32;;;;;;;;;;;24.30;99.70;;;;;;5003176;28;20372;-65
2023/01/08 03:29:59;;;;;;;;;;;24.30;99.90;;;;;;5003089;28;19984;-70
2023/01/08 03:32:29;;;;;;;;;;;24.40;99.90;;;;;;5004601;28;20341;-65
2023/01/08 03:34:57;;;;;;;;;;;24.50;99.90;;;;;;5006816;28;19913;-75
2023/01/08 03:37:25;;;;;;;;;;;24.60;99.90;;;;;;5006781;28;20373;-74
2023/01/08 03:40:06;;;;;;;;;;;24.50;99.90;;;;;;5006547;28;19913;-63
2023/01/08 03:42:34;;;;;;;;;;;24.70;99.90;;;;;;5006761;28;19922;-69
2023/01/08 03:45:00;;;;;;;;;;;24.60;99.90;;;;;;5007018;28;20024;-74
2023/01/08 03:47:29;;;;;;;;;;;24.30;99.90;;;;;;5006301;28;19959;-69
2023/01/08 03:49:57;;;;;;;;;;;24.40;99.90;;;;;;5006311;28;19914;-67
2023/01/08 03:52:25;;;;;;;;;;;24.40;99.90;;;;;;5007096;28;20351;-74
2023/01/08 03:54:51;;;;;;;;;;;24.40;99.90;;;;;;5006921;28;19929;-65
2023/01/08 03:57:19;;;;;;;;;;;24.40;99.90;;;;;;5006313;28;20264;-69
2023/01/08 03:59:46;;;;;;;;;;;24.50;99.90;;;;;;5006234;28;20152;-71
2023/01/08 04:02:13;;;;;;;;;;;24.40;99.90;;;;;;5006840;28;19913;-70
2023/01/08 04:04:40;;;;;;;;;;;24.40;99.90;;;;;;5006705;28;19921;-68
2023/01/08 04:07:07;;;;;;;;;;;24.50;99.90;;;;;;5006486;28;19949;-67
2023/01/08 04:09:34;;;;;;;;;;;24.50;99.90;;;;;;5006090;28;20454;-69
2023/01/08 04:12:00;;;;;;;;;;;24.60;99.90;;;;;;5006549;28;20059;-66
2023/01/08 04:14:27;;;;;;;;;;;24.30;99.90;;;;;;5005987;28;19918;-65
2023/01/08 04:16:54;;;;;;;;;;;24.20;99.90;;;;;;5006102;28;19940;-68
2023/01/08 04:19:20;;;;;;;;;;;24.30;99.90;;;;;;5005702;28;19921;-70
2023/01/08 04:21:50;;;;;;;;;;;24.50;99.90;;;;;;5006304;28;19918;-69
2023/01/08 04:24:17;;;;;;;;;;;24.40;99.90;;;;;;5006128;28;19917;-74
2023/01/08 04:26:43;;;;;;;;;;;24.50;99.90;;;;;;5005386;28;19957;-64
2023/01/08 04:29:11;;;;;;;;;;;24.30;99.90;;;;;;5005413;28;20635;-72
2023/01/08 04:31:38;;;;;;;;;;;24.20;99.90;;;;;;5005659;28;20394;-69
2023/01/08 04:34:05;;;;;;;;;;;24.20;99.90;;;;;;5006054;28;20371;-69
2023/01/08 04:36:31;;;;;;;;;;;24.00;99.90;;;;;;5005775;28;19991;-67
2023/01/08 04:38:58;;;;;;;;;;;24.00;99.90;;;;;;5005429;28;19939;-71
2023/01/08 04:41:25;;;;;;;;;;;24.00;99.90;;;;;;5005839;28;19980;-75
2023/01/08 04:43:51;;;;;;;;;;;24.00;99.90;;;;;;5005596;28;19953;-69
2023/01/08 04:46:18;;;;;;;;;;;24.00;99.90;;;;;;5006202;28;20460;-75
2023/01/08 04:48:45;;;;;;;;;;;23.90;99.90;;;;;;5005464;28;19913;-70
2023/01/08 04:51:11;;;;;;;;;;;24.00;99.90;;;;;;5005416;28;19924;-66
2023/01/08 04:53:40;;;;;;;;;;;24.10;99.90;;;;;;5005613;28;20550;-72
2023/01/08 04:56:08;;;;;;;;;;;24.00;99.90;;;;;;5005541;28;19925;-71
2023/01/08 04:58:35;;;;;;;;;;;23.90;99.90;;;;;;5005242;28;20463;-72
2023/01/08 05:01:08;;;;;;;;;;;24.00;99.90;;;;;;5005600;28;19922;-72
2023/01/08 05:03:35;;;;;;;;;;;24.10;99.90;;;;;;5005214;28;19921;-70
2023/01/08 05:06:02;;;;;;;;;;;24.10;99.90;;;;;;5005292;28;19913;-67
2023/01/08 05:08:28;;;;;;;;;;;24.00;99.90;;;;;;5005242;28;19921;-70
2023/01/08 05:10:57;;;;;;;;;;;23.90;99.90;;;;;;5005285;28;19921;-75
2023/01/08 05:13:26;;;;;;;;;;;23.90;99.90;;;;;;5004778;28;20547;-65
2023/01/08 05:15:52;;;;;;;;;;;23.80;99.90;;;;;;5005124;28;20025;-68
2023/01/08 05:18:19;;;;;;;;;;;23.70;99.90;;;;;;5004594;28;19922;-69
2023/01/08 05:20:46;;;;;;;;;;;23.60;99.90;;;;;;5005141;28;19941;-71
2023/01/08 05:23:12;;;;;;;;;;;23.50;99.90;;;;;;5005049;28;19920;-66
2023/01/08 05:25:39;;;;;;;;;;;23.60;99.90;;;;;;5005389;28;19913;-77
2023/01/08 05:28:06;;;;;;;;;;;23.70;99.90;;;;;;5004420;28;19919;-71
2023/01/08 05:30:32;;;;;;;;;;;23.60;99.90;;;;;;5003748;28;19948;-71
2023/01/08 05:33:00;;;;;;;;;;;23.50;99.90;;;;;;5004706;28;20291;-72
2023/01/08 05:35:27;;;;;;;;;;;23.50;99.90;;;;;;5004820;28;20521;-71
2023/01/08 05:37:53;;;;;;;;;;;23.40;99.90;;;;;;5004642;28;19987;-69
2023/01/08 05:40:20;;;;;;;;;;;23.30;99.90;;;;;;5005311;28;19913;-68
2023/01/08 05:42:46;;;;;;;;;;;23.40;99.90;;;;;;5004599;28;19917;-72
2023/01/08 05:45:15;;;;;;;;;;;23.50;99.90;;;;;;5004415;28;19914;-74
2023/01/08 05:47:42;;;;;;;;;;;23.60;99.90;;;;;;5004796;28;19913;-72
2023/01/08 05:50:08;;;;;;;;;;;23.60;99.90;;;;;;5004116;28;19963;-66
2023/01/08 05:52:35;;;;;;;;;;;23.50;99.90;;;;;;5004638;28;20261;-70
2023/01/08 05:55:02;;;;;;;;;;;23.60;99.90;;;;;;5003948;28;20364;-65
2023/01/08 05:57:28;;;;;;;;;;;23.60;99.90;;;;;;5012312;28;20401;-65
2023/01/08 05:59:55;;;;;;;;;;;23.40;99.90;;;;;;5012230;28;19914;-66
2023/01/08 06:02:22;;;;;;;;;;;23.60;99.90;;;;;;5012816;28;19924;-65
2023/01/08 06:04:48;;;;;;;;;;;23.60;99.90;;;;;;5012744;28;19910;-66
2023/01/08 06:07:15;;;;;;;;;;;23.30;99.90;;;;;;5012375;28;20605;-66
2023/01/08 06:09:41;;;;;;;;;;;23.00;99.90;;;;;;5012237;28;19913;-65
2023/01/08 06:12:08;;;;;;;;;;;23.00;99.90;;;;;;5012500;28;19932;-65
2023/01/08 06:14:35;;;;;;;;;;;22.90;99.90;;;;;;5012401;28;20288;-64
2023/01/08 06:17:01;;;;;;;;;;;22.90;99.90;;;;;;5012004;28;19925;-65
2023/01/08 06:19:28;;;;;;;;;;;23.00;99.90;;;;;;5011807;28;19913;-65
2023/01/08 06:21:55;;;;;;;;;;;23.00;99.90;;;;;;5012322;28;20360;-65
2023/01/08 06:24:22;;;;;;;;;;;23.10;99.90;;;;;;5012302;28;19913;-65
2023/01/08 06:26:48;;;;;;;;;;;23.00;99.90;;;;;;5012073;28;20280;-65
2023/01/08 06:29:15;;;;;;;;;;;23.00;99.90;;;;;;5011623;28;19952;-67
2023/01/08 06:31:42;;;;;;;;;;;23.00;99.90;;;;;;5012301;28;19909;-66
2023/01/08 06:34:08;;;;;;;;;;;23.00;99.90;;;;;;5012076;28;19913;-76
2023/01/08 06:36:35;;;;;;;;;;;23.00;99.90;;;;;;5011721;28;19932;-66
2023/01/08 06:39:02;;;;;;;;;;;23.10;99.90;;;;;;5011867;28;19913;-66
2023/01/08 06:41:28;;;;;;;;;;;23.10;99.90;;;;;;5011505;28;19910;-69
2023/01/08 06:43:55;;;;;;;;;;;22.90;99.90;;;;;;5011987;28;20016;-68
2023/01/08 06:46:22;;;;;;;;;;;22.80;99.90;;;;;;5011945;28;20295;-73
2023/01/08 06:48:48;;;;;;;;;;;22.80;99.90;;;;;;5011386;28;19916;-73
2023/01/08 06:51:15;;;;;;;;;;;22.70;99.90;;;;;;5011546;28;19914;-74
2023/01/08 06:53:41;;;;;;;;;;;22.60;99.90;;;;;;5011895;28;19991;-66
2023/01/08 06:56:09;;;;;;;;;;;22.60;99.90;;;;;;5011590;28;20075;-66
2023/01/08 06:58:36;;;;;;;;;;;22.60;99.90;;;;;;5011237;28;20292;-66
2023/01/08 07:01:03;;;;;;;;;;;22.50;99.90;;;;;;5011599;28;20400;-66
2023/01/08 07:03:30;;;;;;;;;;;22.50;99.90;;;;;;5011334;28;19909;-73
2023/01/08 07:05:56;;;;;;;;;;;22.40;99.90;;;;;;5011639;28;20048;-72
2023/01/08 07:08:23;;;;;;;;;;;22.60;99.90;;;;;;5014268;28;19964;-75
2023/01/08 07:10:50;;;;;;;;;;;22.60;99.90;;;;;;5015426;28;20274;-74
2023/01/08 07:13:17;;;;;;;;;;;22.60;99.90;;;;;;5015222;28;19917;-72
2023/01/08 07:15:43;;;;;;;;;;;22.50;99.90;;;;;;5015621;28;19931;-68
2023/01/08 07:18:11;;;;;;;;;;;22.40;99.90;;;;;;5015207;28;19917;-71
2023/01/08 07:20:37;;;;;;;;;;;22.40;99.90;;;;;;5015240;28;19914;-74
2023/01/08 07:23:05;;;;;;;;;;;22.40;99.90;;;;;;5015579;28;19917;-73
2023/01/08 07:25:32;;;;;;;;;;;22.50;99.90;;;;;;5015145;28;20015;-75
2023/01/08 07:27:59;;;;;;;;;;;22.50;99.90;;;;;;5015113;28;20027;-71
2023/01/08 07:30:25;;;;;;;;;;;22.40;99.90;;;;;;5015450;28;19913;-71
2023/01/08 07:32:52;;;;;;;;;;;22.40;99.90;;;;;;5015679;28;19967;-77
2023/01/08 07:35:19;;;;;;;;;;;22.40;99.90;;;;;;5014927;28;19995;-69
2023/01/08 07:37:45;;;;;;;;;;;22.40;99.90;;;;;;5014982;28;19921;-70
2023/01/08 07:40:12;;;;;;;;;;;22.40;99.90;;;;;;5015440;28;20005;-72
2023/01/08 07:42:38;;;;;;;;;;;22.40;99.90;;;;;;5015182;28;20418;-74
2023/01/08 07:45:06;;;;;;;;;;;22.40;99.90;;;;;;5015466;28;19914;-74
2023/01/08 07:47:33;;;;;;;;;;;22.40;99.90;;;;;;5015010;28;19914;-71
2023/01/08 07:50:00;;;;;;;;;;;22.20;99.90;;;;;;5014658;28;19917;-72
2023/01/08 07:52:26;;;;;;;;;;;22.10;99.90;;;;;;5014922;28;20376;-71
2023/01/08 07:54:53;;;;;;;;;;;22.10;99.90;;;;;;5014923;28;19913;-68
2023/01/08 07:57:20;;;;;;;;;;;22.20;99.90;;;;;;5014473;28;19918;-69
2023/01/08 07:59:46;;;;;;;;;;;22.10;99.90;;;;;;5014710;28;19917;-75
2023/01/08 08:02:13;;;;;;;;;;;22.10;99.90;;;;;;5014867;28;20281;-72
2023/01/08 08:04:39;;;;;;;;;;;22.00;99.90;;;;;;5014939;28;19909;-69
2023/01/08 08:07:06;;;;;;;;;;;22.00;99.90;;;;;;5014811;28;19916;-72
2023/01/08 08:09:33;;;;;;;;;;;21.90;99.90;;;;;;5014250;28;19913;-75
2023/01/08 08:11:59;;;;;;;;;;;21.90;99.90;;;;;;5014612;28;19913;-71
2023/01/08 08:14:26;;;;;;;;;;;21.70;99.90;;;;;;5014692;28;19909;-70
2023/01/08 08:16:53;;;;;;;;;;;21.70;99.90;;;;;;5014668;28;19966;-74
2023/01/08 08:19:19;;;;;;;;;;;21.70;99.90;;;;;;5013660;28;19914;-73
2023/01/08 08:21:46;;;;;;;;;;;21.70;99.90;;;;;;5014562;28;19932;-74
2023/01/08 08:24:12;;;;;;;;;;;21.70;99.90;;;;;;5014500;28;19914;-73
2023/01/08 08:26:39;;;;;;;;;;;21.70;99.90;;;;;;5014076;28;19910;-74
2023/01/08 08:29:06;;;;;;;;;;;21.70;99.90;;;;;;5013999;28;20352;-75
2023/01/08 08:31:32;;;;;;;;;;;21.70;99.90;;;;;;5014235;28;20008;-75
2023/01/08 08:33:59;;;;;;;;;;;21.70;99.90;;;;;;5014168;28;19913;-70
2023/01/08 08:36:29;;;;;;;;;;;21.70;99.90;;;;;;5013747;28;19921;-70
2023/01/08 08:38:56;;;;;;;;;;;21.60;99.90;;;;;;5013664;28;20377;-72
2023/01/08 08:41:22;;;;;;;;;;;21.60;99.90;;;;;;5013751;28;19909;-70
2023/01/08 08:43:50;;;;;;;;;;;21.50;99.90;;;;;;5014083;28;19936;-66
2023/01/08 08:46:19;;;;;;;;;;;21.50;99.90;;;;;;5014018;28;19932;-74
2023/01/08 08:48:46;;;;;;;;;;;21.50;99.90;;;;;;5007149;28;20304;-71
2023/01/08 08:51:13;;;;;;;;;;;21.50;99.90;;;;;;5005639;28;20126;-70
2023/01/08 08:53:40;;;;;;;;;;;21.40;99.90;;;;;;5005708;28;19913;-70
2023/01/08 08:56:07;;;;;;;;;;;21.50;99.90;;;;;;5005553;28;19920;-73
2023/01/08 08:58:33;;;;;;;;;;;21.40;99.90;;;;;;5005013;28;20645;-71
2023/01/08 09:01:02;;;;;;;;;;;21.30;99.90;;;;;;5005263;28;19960;-73
2023/01/08 09:03:29;;;;;;;;;;;21.30;99.90;;;;;;5005014;28;19925;-74
2023/01/08 09:05:57;;;;;;;;;;;21.30;99.90;;;;;;5005396;28;20541;-74
2023/01/08 09:08:23;;;;;;;;;;;21.30;99.90;;;;;;5005184;28;19920;-71
2023/01/08 09:10:50;;;;;;;;;;;21.20;99.90;;;;;;5005466;28;19949;-73
2023/01/08 09:13:17;;;;;;;;;;;21.20;99.90;;;;;;5005251;28;19961;-72
2023/01/08 09:15:43;;;;;;;;;;;21.20;99.90;;;;;;5005332;28;19925;-74
2023/01/08 09:18:10;;;;;;;;;;;21.20;99.90;;;;;;5004674;28;20312;-71
2023/01/08 09:20:37;;;;;;;;;;;21.20;99.90;;;;;;5005321;28;20015;-74
2023/01/08 09:23:03;;;;;;;;;;;21.20;99.90;;;;;;5004952;28;19913;-70
2023/01/08 09:25:30;;;;;;;;;;;21.20;99.90;;;;;;5004535;28;20026;-74
2023/01/08 09:28:01;;;;;;;;;;;21.20;99.90;;;;;;5003990;28;20376;-69
2023/01/08 09:30:28;;;;;;;;;;;21.10;99.90;;;;;;5004028;28;19919;-71
2023/01/08 09:32:58;;;;;;;;;;;21.10;99.90;;;;;;5003449;28;20351;-72
2023/01/08 09:35:25;;;;;;;;;;;21.10;99.90;;;;;;5004438;28;19913;-70
2023/01/08 09:37:52;;;;;;;;;;;21.10;99.90;;;;;;5004544;28;19921;-73
2023/01/08 09:40:20;;;;;;;;;;;21.10;99.90;;;;;;5004423;28;20638;-67
2023/01/08 09:42:52;;;;;;;;;;;21.10;99.90;;;;;;5004358;28;19914;-74
2023/01/08 09:45:25;;;;;;;;;;;21.00;99.90;;;;;;5004579;28;19949;-74
2023/01/08 09:47:52;;;;;;;;;;;20.90;99.90;;;;;;5004543;28;19914;-73
2023/01/08 09:50:19;;;;;;;;;;;20.90;99.90;;;;;;5004674;28;19921;-71
2023/01/08 09:52:46;;;;;;;;;;;20.90;99.90;;;;;;5004679;28;19923;-75
2023/01/08 09:55:14;;;;;;;;;;;20.90;99.90;;;;;;5003936;28;19924;-76
2023/01/08 09:57:41;;;;;;;;;;;20.80;99.90;;;;;;5004290;28;20018;-71
2023/01/08 10:00:27;;;;;;;;;;;20.90;99.90;;;;;;5004871;28;19917;-75
2023/01/08 10:02:54;;;;;;;;;;;20.80;99.90;;;;;;5004838;28;19920;-74
2023/01/08 10:05:20;;;;;;;;;;;20.80;99.90;;;;;;5004515;28;19913;-73
2023/01/08 10:07:50;;;;;;;;;;;20.80;99.90;;;;;;5003980;28;19976;-66
2023/01/08 10:10:23;;;;;;;;;;;20.80;99.90;;;;;;5004594;28;19917;-76
2023/01/08 10:12:50;;;;;;;;;;;20.80;99.90;;;;;;5006797;28;19920;-73
2023/01/08 10:15:18;;;;;;;;;;;20.70;99.90;;;;;;5012538;28;19964;-75
2023/01/08 10:18:00;;;;;;;;;;;20.70;99.90;;;;;;5012239;28;20295;-75
2023/01/08 10:20:27;;;;;;;;;;;20.60;99.90;;;;;;5012638;28;19920;-73
2023/01/08 10:22:55;;;;;;;;;;;20.60;99.90;;;;;;5012591;28;19916;-75
2023/01/08 10:25:23;;;;;;;;;;;20.60;99.90;;;;;;5012242;28;20364;-75
2023/01/08 10:27:51;;;;;;;;;;;20.50;99.90;;;;;;5012130;28;20354;-74
2023/01/08 10:30:19;;;;;;;;;;;20.50;99.90;;;;;;5012585;28;19914;-75
2023/01/08 10:32:51;;;;;;;;;;;20.50;99.90;;;;;;5012557;28;19917;-76
2023/01/08 10:35:19;;;;;;;;;;;20.50;99.90;;;;;;5012196;28;19956;-75
2023/01/08 10:37:49;;;;;;;;;;;20.50;99.90;;;;;;5012092;28;19963;-74
2023/01/08 10:40:22;;;;;;;;;;;20.50;99.90;;;;;;5012248;28;19913;-74
2023/01/08 10:42:49;;;;;;;;;;;20.50;99.90;;;;;;5012261;28;19914;-76
2023/01/08 10:45:24;;;;;;;;;;;20.50;99.90;;;;;;5012101;28;19952;-75
2023/01/08 10:47:52;;;;;;;;;;;20.50;99.90;;;;;;5010656;28;19918;-76
2023/01/08 10:50:20;;;;;;;;;;;20.50;99.90;;;;;;5002752;28;20296;-75
2023/01/08 10:53:13;;;;;;;;;;;20.50;99.90;;;;;;4992885;28;19921;-75
2023/01/08 10:55:40;;;;;;;;;;;20.40;99.90;;;;;;4991394;28;19910;-75
2023/01/08 10:58:09;;;;;;;;;;;20.40;99.90;;;;;;4992160;28;20354;-75
2023/01/08 11:00:36;;;;;;;;;;;20.40;99.90;;;;;;4992567;28;19910;-76
2023/01/08 11:03:21;;;;;;;;;;;20.30;99.90;;;;;;4992576;28;19964;-74
2023/01/08 11:05:48;;;;;;;;;;;20.40;99.90;;;;;;4992085;28;19937;-71
2023/01/08 11:08:16;;;;;;;;;;;20.40;99.90;;;;;;4992299;28;20356;-74
2023/01/08 11:10:51;;;;;;;;;;;20.40;99.90;;;;;;4992492;28;19936;-76
2023/01/08 11:13:18;;;;;;;;;;;20.40;99.90;;;;;;4992442;28;20485;-76
2023/01/08 11:15:45;;;;;;;;;;;20.40;99.90;;;;;;4992627;28;19956;-75
2023/01/08 11:18:22;;;;;;;;;;;20.40;99.90;;;;;;4992082;28;19917;-75
2023/01/08 11:20:49;;;;;;;;;;;20.40;99.90;;;;;;4991933;28;20000;-72
2023/01/08 11:23:26;;;;;;;;;;;20.40;99.90;;;;;;4992259;28;19917;-75
2023/01/08 11:26:02;;;;;;;;;;;20.30;99.90;;;;;;4992201;28;20434;-74
2023/01/08 11:28:38;;;;;;;;;;;20.30;99.90;;;;;;4998606;28;19920;-76
2023/01/08 11:31:11;;;;;;;;;;;20.30;99.90;;;;;;5012148;28;20426;-76
2023/01/08 11:33:39;;;;;;;;;;;20.30;99.90;;;;;;5011580;28;19968;-76
2023/01/08 11:36:11;;;;;;;;;;;20.30;99.90;;;;;;5011470;28;19925;-75
2023/01/08 11:38:38;;;;;;;;;;;20.30;99.90;;;;;;5011420;28;19924;-72
2023/01/08 11:41:13;;;;;;;;;;;20.30;99.90;;;;;;5011932;28;19963;-75
2023/01/08 11:43:39;;;;;;;;;;;20.20;99.90;;;;;;5011800;28;20360;-75
2023/01/08 11:46:32;;;;;;;;;;;20.20;99.90;;;;;;5011970;28;19946;-75
2023/01/08 11:49:17;;;;;;;;;;;20.20;99.90;;;;;;5008958;28;19909;-70
2023/01/08 11:51:49;;;;;;;;;;;20.20;99.90;;;;;;5011761;28;20340;-75
2023/01/08 11:54:31;;;;;;;;;;;20.20;99.90;;;;;;5014420;28;19913;-75
2023/01/08 11:57:01;;;;;;;;;;;20.20;99.90;;;;;;5015518;28;19975;-72
2023/01/08 11:59:35;;;;;;;;;;;20.20;99.90;;;;;;5014828;28;19914;-75
2023/01/08 12:02:17;;;;;;;;;;;20.10;99.90;;;;;;5015013;28;20368;-72
2023/01/08 12:04:47;;;;;;;;;;;20.10;99.90;;;;;;5015291;28;20291;-75
2023/01/08 12:07:16;;;;;;;;;;;20.10;99.90;;;;;;5015031;28;19914;-75
2023/01/08 12:09:49;;;;;;;;;;;20.10;99.90;;;;;;5014792;28;19909;-75
2023/01/08 12:12:16;;;;;;;;;;;20.10;99.90;;;;;;5015023;28;20311;-75
2023/01/08 12:14:56;;;;;;;;;;;20.10;99.90;;;;;;5014940;28;20320;-75
2023/01/08 12:17:41;;;;;;;;;;;20.10;99.90;;;;;;5014540;28;19922;-75
2023/01/08 12:20:13;;;;;;;;;;;20.10;99.90;;;;;;5014782;28;20426;-75
2023/01/08 12:22:49;;;;;;;;;;;20.10;99.90;;;;;;5014948;28;19916;-74
2023/01/08 12:25:34;;;;;;;;;;;20.10;99.90;;;;;;5014490;28;19909;-75
2023/01/08 12:28:19;;;;;;;;;;;20.10;99.90;;;;;;5014462;28;19917;-75
2023/01/08 12:30:50;;;;;;;;;;;20.10;99.90;;;;;;5014842;28;19963;-74
2023/01/08 12:33:34;;;;;;;;;;;20.10;99.90;;;;;;5014444;28;20276;-75
2023/01/08 12:36:06;;;;;;;;;;;20.10;99.90;;;;;;5014661;28;19925;-72
2023/01/08 12:38:42;;;;;;;;;;;20.10;99.90;;;;;;5014274;28;20000;-75
2023/01/08 12:41:10;;;;;;;;;;;20.00;99.90;;;;;;5013186;28;19979;-75
2023/01/08 12:43:57;;;;;;;;;;;20.00;99.90;;;;;;5014645;28;19921;-76
2023/01/08 12:46:25;;;;;;;;;;;20.00;99.90;;;;;;5014482;28;19956;-75
2023/01/08 12:48:53;;;;;;;;;;;20.00;99.90;;;;;;5014043;28;19917;-74
2023/01/08 12:51:26;;;;;;;;;;;20.00;99.90;;;;;;5014105;28;19917;-72
2023/01/08 12:53:52;;;;;;;;;;;20.00;99.90;;;;;;5014759;28;19917;-70
2023/01/08 12:56:19;;;;;;;;;;;19.90;99.90;;;;;;5014720;28;20350;-72
2023/01/08 12:58:45;;;;;;;;;;;19.90;99.90;;;;;;5014603;28;20379;-65
2023/01/08 13:01:18;;;;;;;;;;;19.90;99.90;;;;;;5026183;28;19921;-67
2023/01/08 13:03:45;;;;;;;;;;;19.90;99.90;;;;;;5015744;28;19909;-64
2023/01/08 13:06:16;;;;;;;;;;;19.90;99.90;;;;;;5013983;28;19913;-64
2023/01/08 13:08:50;;;;;;;;;;;19.80;99.90;;;;;;5014567;28;19913;-64
2023/01/08 13:11:27;;;;;;;;;;;19.80;99.90;;;;;;5014704;28;20013;-64
2023/01/08 13:14:00;;;;;;;;;;;19.80;99.90;;;;;;5014504;28;20299;-64
2023/01/08 13:16:27;;;;;;;;;;;19.80;99.90;;;;;;5014310;28;20305;-64
2023/01/08 13:18:53;;;;;;;;;;;19.70;99.90;;;;;;5014651;28;19976;-64
2023/01/08 13:21:28;;;;;;;;;;;19.70;99.90;;;;;;5014202;28;19910;-64
2023/01/08 13:24:05;;;;;;;;;;;19.70;99.90;;;;;;5014322;28;19913;-65
2023/01/08 13:26:34;;;;;;;;;;;19.60;99.90;;;;;;5014235;28;19917;-64
2023/01/08 13:29:26;;;;;;;;;;;19.60;99.90;;;;;;5013716;28;19910;-64
2023/01/08 13:31:53;;;;;;;;;;;19.60;99.90;;;;;;5012091;28;20017;-64
2023/01/08 13:34:38;;;;;;;;;;;19.60;99.90;;;;;;5014339;28;19910;-64
2023/01/08 13:37:05;;;;;;;;;;;19.60;99.90;;;;;;5014338;28;20021;-64
2023/01/08 13:39:36;;;;;;;;;;;19.60;99.90;;;;;;5022302;28;19913;-65
2023/01/08 13:42:03;;;;;;;;;;;19.50;99.90;;;;;;5014130;28;19913;-64
2023/01/08 13:44:33;;;;;;;;;;;19.50;99.90;;;;;;5013888;28;19909;-65
2023/01/08 13:47:01;;;;;;;;;;;19.50;99.90;;;;;;5013775;28;20000;-64
2023/01/08 13:49:32;;;;;;;;;;;19.50;99.90;;;;;;5013077;28;19999;-63
2023/01/08 13:51:59;;;;;;;;;;;19.50;99.90;;;;;;5013565;28;20000;-64
2023/01/08 13:54:38;;;;;;;;;;;19.50;99.90;;;;;;5013362;28;19947;-63
2023/01/08 13:57:12;;;;;;;;;;;19.50;99.90;;;;;;5013055;28;19975;-65
2023/01/08 13:59:58;;;;;;;;;;;19.50;99.90;;;;;;5013294;28;19913;-64
2023/01/08 14:02:43;;;;;;;;;;;19.50;99.90;;;;;;5013252;28;19913;-64
2023/01/08 14:05:29;;;;;;;;;;;19.50;99.90;;;;;;5013239;28;19955;-64
2023/01/08 14:07:57;;;;;;;;;;;19.40;99.90;;;;;;5012857;28;20004;-64
2023/01/08 14:10:25;;;;;;;;;;;19.40;99.90;;;;;;5012866;28;20008;-64
2023/01/08 14:12:53;;;;;;;;;;;19.40;99.90;;;;;;5012817;28;20048;-64
2023/01/08 14:15:21;;;;;;;;;;;19.40;99.90;;;;;;5012626;28;19909;-64
2023/01/08 14:17:48;;;;;;;;;;;19.40;99.90;;;;;;5012531;28;19925;-64
2023/01/08 14:20:20;;;;;;;;;;;19.40;99.90;;;;;;5013007;28;19914;-64
2023/01/08 14:22:47;;;;;;;;;;;19.40;99.90;;;;;;5012932;28;20012;-64
2023/01/08 14:25:15;;;;;;;;;;;19.40;99.90;;;;;;5012450;28;19913;-64
2023/01/08 14:27:42;;;;;;;;;;;19.40;99.90;;;;;;5012368;28;19910;-64